Archival Weather

NSFA McMurdo Sound

NSFA McMurdo Sound, Antarctica (NZCM)

Report from: Friday, September 23, 2022 8:27 PM UTC
Current time: Sunday, December 4, 2022 11:32 AM UTC

Current weather
Weather history
Weather forecast

Present weatherLight snow, mist
Temperature-14.3°C (6.3°F)
Wind chill-23.7°C (-10.7°F)
Dew point-18.2°C (-0.8°F)
Winds 12 kts (6.2 m/s, 13.8 mph) Southeast (140°)
Wind gusts 26 kts (13.4 m/s, 29.9 mph)
Peak wind 27 kts (13.9 m/s, 31.1 mph) South (180°) at 15:12
Visibility1.8 mi. (2.9 km)
Clouds Ceiling: Overcast 1,900 ft. (579 m)
Altimeter28.66 in.Hg (971 mB)
Precip. events Snow began 7:57 PM
Relative humidity72 %
Density altitude-2,171 ft. (-662 m)
Sea-level pressure107.1 kPa (1071 mB, 31.63 in.Hg)
Remarks Fully automated report
System requires maintenance
Special weather observation
Automated weather observing station with precipitation discriminator
Variable
Flight conditions Instrument Meteorological Conditions
Raw dataSPECI NZCM 232027Z AUTO 14012G26KT 2900 -SN BR OVC019 M14/M18 A2866 RMK AO2 PK WND 18027/2012 WSHFT 2023 SNB1957 OVC V BKN SLP710 T11431182 $
An error has occurred. This application may no longer respond until reloaded. Reload 🗙